Time;durP1;ratioP1;P1;durP2;ratioP2;P2;SDS_P1;SDS_P2;PMS_P1;PMS_P2;Temp;Humidity;BMP_temperature;BMP_pressure;BME280_temperature;BME280_humidity;BME280_pressure;Samples;Min_cycle;Max_cycle;Signal;HPM_P1;HPM_P2
2021/12/08 00:00:30;;;;;;;65.35;37.70;;;;;;;1.03;68.22;99341.09;4376581;32;34289;-53
2021/12/08 00:02:59;;;;;;;58.10;33.58;;;;;;;1.02;68.59;99348.91;4374210;32;33098;-53
2021/12/08 00:05:28;;;;;;;65.57;37.05;;;;;;;1.15;66.78;99351.09;4381096;32;34011;-53
2021/12/08 00:07:55;;;;;;;64.30;37.08;;;;;;;1.07;67.48;99341.84;4389140;32;34235;-53
2021/12/08 00:13:05;;;;;;;66.07;37.22;;;;;;;0.90;67.51;99353.59;4389888;32;33299;-53
2021/12/08 00:15:40;;;;;;;64.60;34.95;;;;;;;0.82;68.00;99358.16;4381754;32;33297;-53
2021/12/08 00:18:10;;;;;;;65.55;38.28;;;;;;;0.88;67.88;99351.94;4375563;32;34919;-53
2021/12/08 00:20:40;;;;;;;64.85;34.13;;;;;;;0.67;68.45;99346.44;4373817;32;33647;-53
2021/12/08 00:23:08;;;;;;;64.85;38.28;;;;;;;0.89;68.41;99349.28;4361892;32;33120;-53
2021/12/08 00:25:36;;;;;;;66.05;37.65;;;;;;;0.86;68.88;99359.78;4383535;32;33451;-53
2021/12/08 00:28:07;;;;;;;64.93;35.20;;;;;;;0.86;68.60;99359.78;4389581;32;34747;-53
2021/12/08 00:30:36;;;;;;;64.50;37.35;;;;;;;0.86;68.84;99359.78;4382561;32;34422;-53
2021/12/08 00:33:05;;;;;;;67.10;33.97;;;;;;;0.87;69.06;99360.63;4374303;32;33795;-53
2021/12/08 00:35:34;;;;;;;66.12;37.42;;;;;;;0.76;69.20;99371.34;4375953;32;33676;-53
2021/12/08 00:38:02;;;;;;;63.38;37.20;;;;;;;0.81;68.74;99377.22;4374288;32;34699;-53
2021/12/08 00:40:30;;;;;;;63.25;36.72;;;;;;;0.78;69.23;99372.12;4375021;32;33937;-53
2021/12/08 00:42:58;;;;;;;;;;;;;;;1.04;68.19;99376.56;4374470;32;33015;-53
2021/12/08 00:45:25;;;;;;;67.55;34.05;;;;;;;1.13;68.23;99371.09;4387470;32;34901;-53
2021/12/08 00:47:55;;;;;;;70.00;39.85;;;;;;;1.01;68.68;99373.19;4390161;32;34006;-53
2021/12/08 00:50:25;;;;;;;66.68;34.70;;;;;;;1.01;68.07;99371.47;4385870;32;34799;-53
2021/12/08 00:52:54;;;;;;;65.85;37.78;;;;;;;1.30;67.35;99370.59;4375490;32;33066;-53
2021/12/08 00:55:21;;;;;;;63.80;36.53;;;;;;;1.12;67.73;99373.75;4387075;32;34490;-53
2021/12/08 00:57:50;;;;;;;65.78;36.25;;;;;;;1.28;67.46;99381.94;4390338;32;34472;-53
2021/12/08 01:00:24;;;;;;;62.15;34.17;;;;;;;1.18;67.35;99373.56;4388875;32;34224;-53
2021/12/08 01:02:51;;;;;;;63.80;36.53;;;;;;;1.02;67.62;99380.97;4373584;32;33705;-53
2021/12/08 01:05:23;;;;;;;65.05;36.28;;;;;;;1.00;67.50;99372.38;4388883;32;33909;-53
2021/12/08 01:07:50;;;;;;;65.20;36.30;;;;;;;0.74;68.74;99376.56;4389053;32;34195;-52
2021/12/08 01:10:21;;;;;;;62.92;35.20;;;;;;;0.90;68.62;99378.72;4387802;32;33734;-53
2021/12/08 01:13:08;;;;;;;61.70;35.45;;;;;;;0.94;68.55;99377.75;4374663;32;33310;-53
2021/12/08 01:15:37;;;;;;;64.87;36.70;;;;;;;1.16;67.19;99380.56;4373297;32;33821;-53
2021/12/08 01:18:06;;;;;;;66.43;37.95;;;;;;;1.02;67.07;99373.16;4373854;32;34517;-53
2021/12/08 01:20:34;;;;;;;63.87;35.55;;;;;;;0.82;68.33;99365.97;4373923;32;33313;-53
2021/12/08 01:23:02;;;;;;;61.83;37.30;;;;;;;0.81;68.43;99356.44;4362363;32;33210;-53
2021/12/08 01:25:30;;;;;;;67.03;36.08;;;;;;;0.83;68.50;99362.44;4373477;32;33497;-54
2021/12/08 01:27:57;;;;;;;63.90;33.08;;;;;;;0.77;68.59;99354.81;4374998;32;34856;-53
2021/12/08 01:30:25;;;;;;;65.95;36.80;;;;;;;0.89;68.49;99348.41;4374268;32;33859;-53
2021/12/08 01:32:58;;;;;;;63.00;35.72;;;;;;;0.72;67.67;99348.94;4363338;32;34496;-53
2021/12/08 01:35:26;;;;;;;59.28;34.72;;;;;;;0.89;67.20;99341.50;4359731;32;33861;-53
2021/12/08 01:37:54;;;;;;;64.80;35.15;;;;;;;0.93;67.78;99334.44;4360724;32;34636;-53
2021/12/08 01:40:21;;;;;;;63.67;36.50;;;;;;;0.79;68.29;99340.03;4345332;33;34157;-53
2021/12/08 01:42:52;;;;;;;63.95;35.38;;;;;;;0.83;68.07;99327.81;4349174;32;34090;-53
2021/12/08 01:48:13;;;;;;;62.03;33.55;;;;;;;0.51;68.33;99322.66;4359712;32;34130;-53
2021/12/08 01:50:44;;;;;;;65.00;35.25;;;;;;;0.58;68.24;99319.00;4366249;32;33698;-53
2021/12/08 01:53:11;;;;;;;64.15;34.25;;;;;;;0.62;68.21;99314.56;4374651;32;33626;-53
2021/12/08 01:55:41;;;;;;;62.55;34.58;;;;;;;0.67;68.23;99310.06;4372542;32;33927;-53
2021/12/08 01:58:09;;;;;;;65.35;34.25;;;;;;;0.90;66.94;99313.75;4363727;32;35291;-53
2021/12/08 02:00:43;;;;;;;62.80;34.72;;;;;;;0.75;67.81;99313.28;4367391;32;34174;-53
2021/12/08 02:03:32;;;;;;;61.20;34.00;;;;;;;0.70;67.94;99309.97;4374184;32;33584;-53
2021/12/08 02:06:03;;;;;;;61.28;31.80;;;;;;;0.77;67.82;99305.44;4374659;32;34491;-53
2021/12/08 02:08:31;;;;;;;61.20;34.90;;;;;;;0.83;67.70;99307.00;4372856;32;34037;-53
2021/12/08 02:11:00;;;;;;;60.35;35.13;;;;;;;0.88;67.63;99305.16;4361258;32;34365;-54
2021/12/08 02:13:31;;;;;;;63.53;33.60;;;;;;;0.76;67.79;99302.00;4343885;33;33307;-53
2021/12/08 02:16:00;;;;;;;60.03;33.00;;;;;;;0.86;67.29;99286.13;4357845;32;33884;-53
2021/12/08 02:18:28;;;;;;;60.38;34.00;;;;;;;0.88;67.09;99273.94;4359533;32;34439;-53
2021/12/08 02:20:59;;;;;;;60.30;33.63;;;;;;;0.98;66.69;99272.75;4383327;32;34109;-53
2021/12/08 02:23:27;;;;;;;59.13;34.13;;;;;;;1.02;66.44;99270.91;4387807;32;33915;-53
2021/12/08 02:25:54;;;;;;;61.53;36.05;;;;;;;0.85;66.34;99274.88;4373002;32;35376;-53
2021/12/08 02:28:22;;;;;;;67.70;38.30;;;;;;;0.68;67.40;99277.13;4374666;32;34174;-53
2021/12/08 02:30:56;;;;;;;72.30;37.97;;;;;;;0.87;66.78;99287.81;4374181;32;33583;-53
2021/12/08 02:47:44;;;;;;;61.92;33.15;;;;;;;0.56;66.37;99297.41;4387349;32;33584;-53
2021/12/08 02:50:12;;;;;;;57.92;32.28;;;;;;;0.44;67.60;99299.47;4380282;32;34500;-53
2021/12/08 02:52:39;;;;;;;56.10;31.77;;;;;;;0.63;66.56;99305.00;4374463;32;33776;-53
2021/12/08 02:55:08;;;;;;;52.40;32.25;;;;;;;0.51;66.20;99317.44;4373021;32;33375;-53
2021/12/08 02:57:35;;;;;;;57.00;33.85;;;;;;;0.47;66.56;99315.84;4376940;32;33593;-53
2021/12/08 03:00:07;;;;;;;57.30;33.15;;;;;;;0.51;66.05;99322.66;4372994;32;35042;-54
2021/12/08 03:02:34;;;;;;;52.75;28.45;;;;;;;0.42;66.74;99324.66;4373985;32;34412;-53
2021/12/08 03:05:03;;;;;;;;;;;;;;;0.35;67.03;99330.03;4374440;32;33057;-54
2021/12/08 03:07:30;;;;;;;53.47;26.80;;;;;;;0.36;66.84;99325.66;4373601;32;34089;-53
2021/12/08 03:10:10;;;;;;;57.78;30.40;;;;;;;0.59;66.22;99325.03;4374027;32;34700;-53
2021/12/08 03:12:38;;;;;;;55.78;31.40;;;;;;;0.50;66.33;99318.34;4387703;32;33729;-53
2021/12/08 03:15:06;;;;;;;58.78;32.83;;;;;;;0.33;66.82;99316.22;4388956;32;34267;-53
2021/12/08 03:17:34;;;;;;;60.50;33.22;;;;;;;0.42;66.52;99325.50;4372766;32;34827;-54
2021/12/08 03:20:07;;;;;;;56.75;32.38;;;;;;;0.42;66.49;99322.06;4377520;32;34358;-53
2021/12/08 03:22:38;;;;;;;54.25;30.83;;;;;;;0.25;66.89;99314.72;4388876;32;33651;-53
2021/12/08 03:25:10;;;;;;;59.22;32.15;;;;;;;0.42;66.44;99312.50;4389632;32;33074;-53
2021/12/08 03:27:45;;;;;;;59.42;32.75;;;;;;;0.25;67.16;99317.31;4378739;32;34517;-53
2021/12/08 03:30:20;;;;;;;57.40;33.22;;;;;;;0.26;66.74;99314.69;4374689;32;34152;-53
2021/12/08 03:32:47;;;;;;;58.05;30.83;;;;;;;0.18;67.02;99311.44;4382896;32;33844;-53
2021/12/08 03:35:16;;;;;;;60.35;35.60;;;;;;;0.53;65.23;99310.47;4390272;32;33208;-53
2021/12/08 03:37:46;;;;;;;59.92;34.17;;;;;;;0.35;65.97;99308.37;4379497;32;34610;-53
2021/12/08 03:40:17;;;;;;;60.85;34.30;;;;;;;0.37;65.92;99299.66;4375751;32;34627;-53
2021/12/08 03:42:46;;;;;;;61.33;32.63;;;;;;;0.37;65.90;99306.59;4382826;32;34169;-54
2021/12/08 03:45:44;;;;;;;56.53;34.22;;;;;;;0.18;66.13;99303.66;4390769;32;33523;-53
2021/12/08 03:48:28;;;;;;;61.05;34.63;;;;;;;0.25;66.13;99305.16;4377618;32;33476;-53
2021/12/08 03:50:56;;;;;;;58.40;30.58;;;;;;;0.25;65.84;99304.31;4374942;32;34502;-53
2021/12/08 03:53:24;;;;;;;58.08;29.50;;;;;;;0.37;65.51;99301.41;4389101;32;34475;-54
2021/12/08 03:55:53;;;;;;;59.40;31.77;;;;;;;0.33;65.63;99291.97;4389288;32;33085;-53
2021/12/08 03:58:21;;;;;;;57.53;32.53;;;;;;;0.28;65.68;99304.25;4382352;32;34065;-53
2021/12/08 04:00:51;;;;;;;57.97;34.70;;;;;;;0.13;66.21;99301.16;4374307;32;34082;-53
2021/12/08 04:03:19;;;;;;;61.30;34.53;;;;;;;0.10;66.02;99296.06;4388810;32;33753;-53
2021/12/08 04:05:56;;;;;;;60.35;35.90;;;;;;;0.18;65.42;99301.06;4390090;32;34142;-53
2021/12/08 04:08:41;;;;;;;58.03;29.30;;;;;;;-0.01;66.56;99304.12;4383705;32;33872;-53
2021/12/08 04:11:10;;;;;;;59.97;36.35;;;;;;;-0.02;66.77;99314.56;4383073;32;34186;-53
2021/12/08 04:13:40;;;;;;;61.35;30.12;;;;;;;0.29;65.41;99311.12;4389256;32;33708;-54
2021/12/08 04:16:09;;;;;;;59.83;35.30;;;;;;;-0.07;67.18;99314.69;4390590;32;33068;-53
2021/12/08 04:18:38;;;;;;;61.03;33.15;;;;;;;0.17;66.44;99307.13;4382340;32;33366;-53
2021/12/08 04:21:07;;;;;;;59.50;28.98;;;;;;;0.02;66.67;99310.13;4374968;32;35458;-53
2021/12/08 04:23:38;;;;;;;58.65;32.58;;;;;;;0.07;66.42;99311.72;4375296;32;34742;-54
2021/12/08 04:26:12;;;;;;;62.97;35.40;;;;;;;0.16;65.98;99305.44;4373674;32;34099;-53
2021/12/08 04:28:39;;;;;;;58.95;32.13;;;;;;;0.17;65.78;99302.78;4375138;32;33528;-53
2021/12/08 04:31:09;;;;;;;;;;;;;;;0.30;65.11;99292.09;4374701;32;34916;-54
2021/12/08 04:33:37;;;;;;;62.17;28.77;;;;;;;0.29;64.80;99295.56;4375391;32;35165;-53
2021/12/08 04:36:09;;;;;;;58.50;31.33;;;;;;;-0.10;66.22;99296.59;4374883;32;32391;-54
2021/12/08 04:38:41;;;;;;;58.50;31.42;;;;;;;0.07;65.60;99303.09;4373990;32;33942;-53
2021/12/08 04:41:17;;;;;;;59.78;29.67;;;;;;;0.22;65.21;99301.84;4374950;32;35341;-54
2021/12/08 04:44:11;;;;;;;62.42;33.00;;;;;;;0.01;65.33;99306.69;4374129;32;34957;-53
2021/12/08 04:46:59;;;;;;;60.20;29.95;;;;;;;0.11;65.13;99299.50;4389417;32;34425;-53
2021/12/08 04:52:09;;;;;;;58.38;33.28;;;;;;;0.18;64.82;99309.69;4374060;32;34975;-53
2021/12/08 05:08:43;;;;;;;54.40;27.00;;;;;;;0.21;63.80;99305.31;4359299;32;33426;-53
2021/12/08 05:11:17;;;;;;;53.87;31.00;;;;;;;-0.16;64.60;99299.34;4376370;32;34770;-54
2021/12/08 05:13:47;;;;;;;54.67;31.77;;;;;;;0.05;64.33;99302.28;4388698;32;34898;-53
2021/12/08 05:16:21;;;;;;;52.45;28.70;;;;;;;0.08;63.93;99317.75;4359999;32;34084;-54
2021/12/08 05:18:50;;;;;;;53.10;28.65;;;;;;;0.18;63.50;99327.03;4359551;32;33707;-53
2021/12/08 05:21:25;;;;;;;49.78;27.33;;;;;;;-0.10;64.58;99313.91;4372388;32;34094;-53
2021/12/08 05:23:57;;;;;;;49.65;28.77;;;;;;;-0.20;64.93;99308.09;4376368;32;34106;-53
2021/12/08 05:26:33;;;;;;;45.22;25.98;;;;;;;-0.22;64.78;99315.06;4371379;32;35232;-53
2021/12/08 05:29:06;;;;;;;52.65;32.20;;;;;;;-0.13;64.35;99307.06;4375325;32;33269;-53
2021/12/08 05:31:34;;;;;;;58.42;30.88;;;;;;;-0.28;64.65;99297.91;4373371;32;33829;-54
2021/12/08 05:34:05;;;;;;;51.75;28.50;;;;;;;-0.13;64.24;99309.66;4374740;32;35350;-53
2021/12/08 05:36:33;;;;;;;53.58;29.63;;;;;;;-0.15;64.26;99305.41;4374684;32;34495;-53
2021/12/08 05:39:05;;;;;;;54.10;29.70;;;;;;;-0.08;63.95;99296.53;4373737;32;33671;-53
2021/12/08 05:41:35;;;;;;;56.50;35.17;;;;;;;-0.12;63.73;99287.13;4374880;32;33901;-53
2021/12/08 05:44:04;;;;;;;58.08;31.55;;;;;;;-0.44;64.06;99283.66;4373655;32;34582;-53
2021/12/08 05:46:34;;;;;;;61.75;33.83;;;;;;;-0.53;64.44;99289.06;4373688;32;33795;-53
2021/12/08 05:49:03;;;;;;;57.97;30.90;;;;;;;-0.40;64.05;99301.66;4374324;32;33176;-53
2021/12/08 05:51:34;;;;;;;51.67;28.58;;;;;;;-0.63;64.69;99297.03;4375549;32;33952;-53
2021/12/08 05:54:12;;;;;;;47.25;26.20;;;;;;;-0.61;65.13;99299.59;4373366;32;34156;-54
2021/12/08 05:56:42;;;;;;;52.58;26.95;;;;;;;-0.39;64.43;99302.53;4372967;32;34071;-53
2021/12/08 05:59:11;;;;;;;49.70;29.45;;;;;;;-0.35;64.18;99304.16;4372789;32;33089;-53
2021/12/08 06:01:51;;;;;;;49.10;26.75;;;;;;;-0.49;64.30;99308.84;4373173;32;34703;-53
2021/12/08 06:04:20;;;;;;;52.92;25.50;;;;;;;-0.46;63.99;99299.25;4359215;32;35510;-53
2021/12/08 06:06:47;;;;;;;51.72;30.15;;;;;;;-0.40;63.79;99306.03;4373855;32;36239;-54
2021/12/08 06:09:17;;;;;;;50.70;27.70;;;;;;;-0.38;63.92;99312.03;4375434;32;34542;-54
2021/12/08 06:11:48;;;;;;;53.45;30.40;;;;;;;-0.56;64.46;99317.63;4384248;32;33123;-53
2021/12/08 06:14:18;;;;;;;54.40;27.10;;;;;;;-0.69;64.53;99312.75;4388628;32;34873;-53
2021/12/08 06:16:48;;;;;;;52.70;27.42;;;;;;;-0.63;64.21;99324.72;4370314;32;33764;-53
2021/12/08 06:19:16;;;;;;;52.83;28.70;;;;;;;-0.58;64.09;99319.41;4359110;32;32994;-53
2021/12/08 06:21:44;;;;;;;53.08;31.00;;;;;;;-0.67;63.85;99318.75;4382339;32;33910;-53
2021/12/08 06:24:14;;;;;;;57.22;34.58;;;;;;;-0.77;64.09;99312.09;4389901;32;35358;-53
2021/12/08 06:26:42;;;;;;;49.92;26.98;;;;;;;-0.69;64.05;99311.91;4377676;32;34277;-54
2021/12/08 06:29:11;;;;;;;52.70;33.03;;;;;;;-0.55;63.80;99302.03;4374924;32;33096;-53
2021/12/08 06:31:39;;;;;;;53.55;28.60;;;;;;;-0.53;63.59;99308.03;4385217;32;33376;-53
2021/12/08 06:34:07;;;;;;;55.35;29.70;;;;;;;-0.58;63.70;99312.50;4389740;32;35088;-54
2021/12/08 06:36:44;;;;;;;54.63;34.83;;;;;;;-0.68;63.98;99326.56;4381069;32;35789;-53
2021/12/08 06:39:19;;;;;;;75.35;32.00;;;;;;;-0.63;63.77;99324.72;4372522;32;33652;-52
2021/12/08 06:41:52;;;;;;;62.50;35.00;;;;;;;0.62;84.19;99329.28;4376246;32;33540;-53
2021/12/08 06:44:25;;;;;;;71.03;42.72;;;;;;;0.81;75.31;99320.06;4359306;32;34716;-53
2021/12/08 06:46:54;;;;;;;60.20;37.40;;;;;;;1.34;81.43;99316.75;4368704;32;34439;-53
2021/12/08 06:49:23;;;;;;;54.53;31.48;;;;;;;1.10;74.86;99321.78;4373321;32;33532;-55
2021/12/08 06:51:58;;;;;;;;;;;;;;;0.80;69.56;99315.75;4388929;32;34736;-54
2021/12/08 06:54:32;;;;;;;60.25;30.52;;;;;;;0.59;63.87;99318.06;4375136;32;34708;-54
2021/12/08 06:57:07;;;;;;;56.75;31.62;;;;;;;0.50;66.88;99323.53;4372265;32;33716;-54
2021/12/08 06:59:51;;;;;;;58.97;34.72;;;;;;;0.50;65.31;99318.34;4377825;32;33693;-54
2021/12/08 07:02:36;;;;;;;55.67;33.58;;;;;;;0.35;64.29;99318.75;4389932;32;33627;-54
2021/12/08 07:05:12;;;;;;;57.33;34.70;;;;;;;0.24;63.46;99318.22;4385435;32;35229;-54
2021/12/08 07:07:43;;;;;;;55.53;31.20;;;;;;;0.12;62.52;99309.03;4375458;32;34212;-54
2021/12/08 07:10:21;;;;;;;53.97;34.83;;;;;;;0.09;62.27;99311.69;4380974;32;32967;-54
2021/12/08 07:12:52;;;;;;;55.17;33.60;;;;;;;0.15;62.46;99312.34;4391038;32;33514;-54
2021/12/08 07:15:36;;;;;;;52.35;33.17;;;;;;;0.18;62.46;99307.09;4390002;32;34629;-54
2021/12/08 07:18:09;;;;;;;60.10;34.83;;;;;;;0.01;62.45;99303.25;4374264;32;34326;-54
2021/12/08 07:20:47;;;;;;;60.08;37.40;;;;;;;-0.08;62.75;99313.00;4386220;32;33095;-54
2021/12/08 07:23:19;;;;;;;64.10;37.50;;;;;;;-0.05;63.02;99312.06;4374755;32;34114;-54
2021/12/08 07:25:48;;;;;;;58.90;39.78;;;;;;;-0.08;64.22;99310.41;4375011;32;34965;-54
2021/12/08 07:28:17;;;;;;;65.82;41.37;;;;;;;0.08;63.21;99312.56;4374406;32;34863;-54
2021/12/08 07:31:08;;;;;;;67.60;38.00;;;;;;;-0.11;63.50;99310.47;4375136;32;32978;-53
2021/12/08 07:33:36;;;;;;;67.10;39.05;;;;;;;0.13;62.87;99303.75;4375715;32;33461;-54
2021/12/08 07:36:10;;;;;;;66.70;37.10;;;;;;;0.22;62.61;99310.47;4389749;32;33894;-54
2021/12/08 07:38:39;;;;;;;72.97;45.53;;;;;;;0.13;62.94;99313.31;4380370;32;34838;-54
2021/12/08 07:41:29;;;;;;;74.78;43.63;;;;;;;0.03;63.43;99312.69;4362545;32;32644;-54
2021/12/08 07:44:01;;;;;;;67.40;36.70;;;;;;;-0.09;64.59;99313.88;4377696;32;33791;-54
2021/12/08 07:46:34;;;;;;;66.28;38.83;;;;;;;0.21;63.73;99321.72;4381668;32;34171;-54
2021/12/08 07:49:23;;;;;;;64.03;36.30;;;;;;;0.30;64.34;99326.69;4373821;32;34591;-54
2021/12/08 07:51:55;;;;;;;58.75;32.72;;;;;;;0.21;64.55;99324.31;4375499;32;33292;-54
2021/12/08 07:54:24;;;;;;;65.22;38.35;;;;;;;0.23;64.35;99321.69;4374515;32;34291;-54
2021/12/08 07:56:55;;;;;;;61.53;33.42;;;;;;;0.33;64.35;99329.22;4381727;32;34447;-54
2021/12/08 07:59:27;;;;;;;54.78;36.22;;;;;;;0.22;65.11;99331.25;4368685;32;34600;-54
2021/12/08 08:01:56;;;;;;;;;;;;;;;0.25;64.91;99325.94;4367840;32;32862;-54
2021/12/08 08:04:26;;;;;;;60.75;31.50;;;;;;;0.35;64.85;99327.41;4375493;32;34927;-53
2021/12/08 08:06:56;;;;;;;66.70;31.67;;;;;;;0.43;64.63;99323.75;4360740;32;34942;-53
2021/12/08 08:09:29;;;;;;;77.55;43.08;;;;;;;1.24;79.09;99325.69;4374041;32;33768;-54
2021/12/08 08:12:00;;;;;;;58.35;33.53;;;;;;;1.79;78.52;99328.31;4375589;32;32987;-54
2021/12/08 08:14:39;;;;;;;57.67;35.38;;;;;;;1.61;75.04;99322.81;4374625;32;33395;-54
2021/12/08 08:17:08;;;;;;;;;;;;;;;1.44;71.95;99327.69;4389763;32;35016;-54
2021/12/08 08:19:42;;;;;;;;;;;;;;;1.54;69.44;99323.91;4390025;32;34196;-54
2021/12/08 08:22:14;;;;;;;59.65;31.80;;;;;;;1.53;68.17;99332.59;4390701;32;33500;-54
2021/12/08 08:24:42;;;;;;;55.47;35.90;;;;;;;1.23;65.36;99332.66;4390320;32;33828;-54
2021/12/08 08:27:11;;;;;;;57.53;36.95;;;;;;;1.27;64.65;99326.47;4374759;32;33248;-54
2021/12/08 08:29:39;;;;;;;61.30;37.10;;;;;;;1.10;64.61;99326.97;4375719;32;33744;-54
2021/12/08 08:32:06;;;;;;;;;;;;;;;1.01;64.78;99334.19;4374735;32;33099;-53
2021/12/08 08:34:38;;;;;;;67.10;39.25;;;;;;;1.39;63.82;99333.03;4375725;32;34805;-54
2021/12/08 08:37:10;;;;;;;65.05;37.03;;;;;;;1.47;63.70;99333.62;4359727;32;34505;-54
2021/12/08 08:39:42;;;;;;;64.15;41.33;;;;;;;1.59;63.83;99337.63;4360233;32;33965;-54
2021/12/08 08:42:17;;;;;;;63.97;40.85;;;;;;;1.68;64.08;99331.25;4360646;32;33628;-54
2021/12/08 08:44:50;;;;;;;65.30;40.83;;;;;;;1.58;64.25;99343.72;4376062;32;33437;-54
2021/12/08 08:47:23;;;;;;;65.07;39.72;;;;;;;1.66;64.29;99333.91;4390634;32;34204;-54
2021/12/08 08:49:51;;;;;;;63.95;41.35;;;;;;;1.73;64.34;99337.16;4389216;32;33594;-54
2021/12/08 08:52:33;;;;;;;62.67;41.85;;;;;;;1.60;64.63;99333.25;4390622;32;34137;-54
2021/12/08 08:55:23;;;;;;;65.90;41.63;;;;;;;1.67;64.70;99332.16;4390572;32;34329;-54
2021/12/08 08:57:50;;;;;;;65.05;42.35;;;;;;;1.65;65.19;99333.94;4377246;32;33985;-54
2021/12/08 09:00:36;;;;;;;64.32;42.08;;;;;;;1.71;65.37;99331.16;4375464;32;33513;-53
2021/12/08 09:03:07;;;;;;;67.10;42.35;;;;;;;1.83;65.14;99327.31;4374694;32;33926;-54
2021/12/08 09:05:51;;;;;;;67.30;43.13;;;;;;;1.94;64.96;99320.00;4374780;32;33825;-54
2021/12/08 09:08:22;;;;;;;73.65;45.03;;;;;;;2.00;64.84;99311.09;4359263;32;34653;-54
2021/12/08 09:11:24;;;;;;;72.87;43.97;;;;;;;2.20;64.46;99306.03;4359244;32;33784;-54
2021/12/08 09:13:59;;;;;;;67.40;41.83;;;;;;;2.36;64.53;99317.63;4341984;32;33254;-54
2021/12/08 09:16:38;;;;;;;69.50;42.22;;;;;;;2.38;64.70;99314.97;4370357;32;34418;-54
2021/12/08 09:19:14;;;;;;;70.90;41.33;;;;;;;2.35;65.13;99309.88;4389005;32;34472;-54
2021/12/08 09:21:49;;;;;;;64.25;40.15;;;;;;;2.41;65.59;99303.59;4389407;32;34400;-54
2021/12/08 09:24:44;;;;;;;65.20;41.85;;;;;;;2.46;65.35;99302.53;4389701;32;33077;-53
2021/12/08 09:27:39;;;;;;;67.03;42.05;;;;;;;2.79;64.63;99309.13;4389674;32;33294;-54
2021/12/08 09:30:15;;;;;;;68.57;41.85;;;;;;;2.66;64.98;99313.97;4390404;32;34295;-53
2021/12/08 09:32:58;;;;;;;69.12;42.10;;;;;;;2.67;65.25;99308.69;4374321;32;34502;-53
2021/12/08 09:35:55;;;;;;;70.50;43.17;;;;;;;2.75;65.06;99291.00;4375279;32;33791;-53
2021/12/08 09:38:30;;;;;;;71.53;43.72;;;;;;;2.89;64.71;99289.63;4375273;32;34445;-54
2021/12/08 09:41:03;;;;;;;69.30;43.30;;;;;;;2.91;64.80;99290.44;4373997;32;34559;-53
2021/12/08 09:43:37;;;;;;;71.68;44.40;;;;;;;2.99;64.77;99297.97;4382169;32;34347;-53
2021/12/08 09:46:21;;;;;;;69.47;43.83;;;;;;;2.91;64.71;99293.88;4389408;32;33169;-54
2021/12/08 09:48:50;;;;;;;73.28;44.95;;;;;;;2.99;64.84;99284.94;4389543;32;34072;-54
2021/12/08 09:51:23;;;;;;;73.68;43.97;;;;;;;3.04;64.82;99280.34;4376966;32;35642;-53
2021/12/08 09:53:53;;;;;;;71.47;42.28;;;;;;;3.13;64.81;99280.00;4378296;32;34034;-53
2021/12/08 09:56:22;;;;;;;71.15;42.92;;;;;;;3.16;64.86;99272.06;4375162;32;33029;-53
2021/12/08 09:58:50;;;;;;;75.75;43.83;;;;;;;3.27;64.40;99280.28;4373846;32;34113;-54
2021/12/08 10:01:20;;;;;;;69.68;41.83;;;;;;;3.38;64.28;99276.44;4374962;32;34552;-54
2021/12/08 10:03:50;;;;;;;66.10;40.72;;;;;;;3.62;63.38;99274.56;4386153;32;33712;-53
2021/12/08 10:06:18;;;;;;;60.70;38.97;;;;;;;3.45;63.73;99270.03;4389176;32;33602;-53
2021/12/08 10:08:47;;;;;;;79.45;45.53;;;;;;;3.58;63.25;99265.16;4390050;32;34766;-54
2021/12/08 10:11:16;;;;;;;73.90;45.00;;;;;;;3.60;62.94;99264.19;4388801;32;35235;-54
2021/12/08 10:13:45;;;;;;;65.22;39.97;;;;;;;3.62;63.13;99264.97;4377626;32;34261;-53
2021/12/08 10:16:14;;;;;;;73.50;43.17;;;;;;;3.66;63.24;99266.53;4374084;32;34888;-54
2021/12/08 10:18:43;;;;;;;73.68;43.60;;;;;;;3.66;63.24;99256.06;4374653;32;34098;-54
2021/12/08 10:21:13;;;;;;;76.28;44.67;;;;;;;3.58;63.28;99257.31;4374771;32;34452;-54
2021/12/08 10:23:43;;;;;;;75.57;44.42;;;;;;;3.72;63.01;99255.84;4386578;32;34210;-54
2021/12/08 10:26:15;;;;;;;80.60;44.42;;;;;;;3.86;62.95;99254.41;4389937;32;34248;-54
2021/12/08 10:28:48;;;;;;;77.80;47.20;;;;;;;3.75;63.27;99249.62;4388700;32;33732;-53
2021/12/08 10:31:44;;;;;;;75.43;46.00;;;;;;;3.88;62.69;99247.37;4389578;32;34458;-54
2021/12/08 10:36:49;;;;;;;76.47;47.00;;;;;;;3.89;62.40;99236.81;4358612;32;33662;-53
2021/12/08 10:39:32;;;;;;;74.32;46.65;;;;;;;3.73;62.94;99236.63;4359825;32;34584;-54
2021/12/08 10:42:17;;;;;;;70.90;45.00;;;;;;;3.75;63.28;99236.56;4364250;32;35572;-53
2021/12/08 10:44:56;;;;;;;74.53;45.22;;;;;;;3.78;62.73;99226.00;4374186;32;34154;-54
2021/12/08 10:47:32;;;;;;;75.47;44.92;;;;;;;4.02;62.16;99218.03;4374636;32;34668;-53
2021/12/08 10:56:06;;;;;;;80.93;48.83;;;;;;;3.99;61.83;99215.53;4389817;32;34828;-54
2021/12/08 10:58:36;;;;;;;81.35;48.58;;;;;;;3.98;61.88;99212.06;4388630;32;32654;-54
2021/12/08 11:01:11;;;;;;;79.95;48.05;;;;;;;3.98;62.21;99206.84;4388536;32;33632;-54
2021/12/08 11:03:39;;;;;;;77.57;45.90;;;;;;;4.20;61.84;99208.50;4373500;32;34235;-53
2021/12/08 11:06:09;;;;;;;78.62;47.78;;;;;;;4.05;61.85;99210.91;4374107;32;34203;-54
2021/12/08 11:08:39;;;;;;;79.40;47.38;;;;;;;4.08;61.85;99205.53;4374151;32;33929;-54
2021/12/08 11:11:09;;;;;;;78.12;47.85;;;;;;;4.05;61.92;99197.84;4375054;32;33965;-53
2021/12/08 11:13:40;;;;;;;76.10;46.80;;;;;;;4.19;61.67;99202.44;4389283;32;34516;-54
2021/12/08 11:16:16;;;;;;;78.12;46.80;;;;;;;4.23;61.30;99187.47;4387924;32;34487;-54
2021/12/08 11:18:49;;;;;;;73.70;44.78;;;;;;;4.10;61.43;99206.31;4389266;32;34119;-55
2021/12/08 11:21:21;;;;;;;71.97;43.90;;;;;;;4.36;60.72;99192.97;4388729;32;34700;-54
2021/12/08 11:24:44;;;;;;;71.65;43.70;;;;;;;4.36;61.08;99185.97;4387872;32;34522;-54
2021/12/08 11:27:28;;;;;;;69.03;41.85;;;;;;;4.23;61.50;99183.09;4375898;32;34754;-55
2021/12/08 11:29:55;;;;;;;67.00;41.00;;;;;;;4.70;71.15;99189.66;4373368;32;33576;-55
2021/12/08 11:32:24;;;;;;;66.50;39.17;;;;;;;5.37;73.65;99188.16;4372439;32;34608;-54
2021/12/08 11:34:53;;;;;;;63.33;38.17;;;;;;;5.14;62.09;99184.06;4372895;32;34395;-54
2021/12/08 11:37:24;;;;;;;61.53;37.70;;;;;;;5.05;60.13;99187.13;4384417;32;34845;-53
2021/12/08 11:40:00;;;;;;;64.95;37.95;;;;;;;4.98;59.11;99185.72;4372869;32;33712;-55
2021/12/08 11:42:38;;;;;;;64.43;38.42;;;;;;;4.78;59.44;99169.19;4378775;32;34065;-54
2021/12/08 11:45:13;;;;;;;63.33;38.97;;;;;;;4.85;59.26;99178.47;4383874;32;34649;-54
2021/12/08 11:47:42;;;;;;;61.53;39.13;;;;;;;4.92;59.18;99171.16;4367893;32;34674;-54
2021/12/08 11:50:15;;;;;;;68.57;41.15;;;;;;;4.67;59.21;99174.09;4390005;32;33089;-54
2021/12/08 11:52:43;;;;;;;67.65;40.20;;;;;;;4.70;59.31;99172.19;4385140;32;33447;-54
2021/12/08 11:55:11;;;;;;;;;;;;;;;4.77;62.25;99170.13;4361165;32;33262;-54
2021/12/08 11:57:42;;;;;;;67.12;41.13;;;;;;;4.80;59.65;99172.59;4378808;32;34389;-55
2021/12/08 12:00:11;;;;;;;72.95;41.80;;;;;;;4.78;59.92;99169.19;4375707;32;33020;-54
2021/12/08 12:02:40;;;;;;;68.72;39.05;;;;;;;4.69;60.10;99173.13;4374857;32;33917;-55
2021/12/08 12:05:12;;;;;;;70.50;40.78;;;;;;;4.89;59.64;99177.37;4375085;32;35350;-54
2021/12/08 12:07:40;;;;;;;67.30;39.65;;;;;;;4.64;59.94;99166.41;4377884;32;34123;-54
2021/12/08 12:10:09;;;;;;;66.45;39.83;;;;;;;4.58;60.22;99156.25;4373722;32;34536;-54
2021/12/08 12:12:39;;;;;;;62.67;37.65;;;;;;;4.85;59.12;99164.53;4374846;32;33970;-54
2021/12/08 12:15:09;;;;;;;58.87;37.20;;;;;;;4.83;59.05;99156.75;4380198;32;35060;-54
2021/12/08 12:17:37;;;;;;;64.40;39.03;;;;;;;4.76;59.16;99155.34;4384785;32;34100;-54
2021/12/08 12:20:13;;;;;;;66.25;39.28;;;;;;;4.74;58.83;99152.81;4374255;32;33435;-54
2021/12/08 12:22:59;;;;;;;67.30;39.10;;;;;;;5.01;58.34;99148.94;4347316;32;33575;-54
2021/12/08 12:25:30;;;;;;;67.43;39.17;;;;;;;4.74;59.28;99146.72;4366833;32;34542;-54
2021/12/08 12:28:20;;;;;;;71.20;41.25;;;;;;;4.76;59.69;99144.06;4375623;32;34192;-54
2021/12/08 12:31:10;;;;;;;69.90;42.25;;;;;;;4.86;59.74;99150.53;4367304;32;33391;-54
2021/12/08 12:33:42;;;;;;;73.35;41.42;;;;;;;4.76;59.76;99150.13;4360261;32;33419;-54
2021/12/08 12:36:36;;;;;;;75.15;43.35;;;;;;;4.92;59.35;99145.84;4387515;32;34163;-54